sensor_id;sensor_type;location;lat;lon;timestamp;temperature;humidity
5556;DHT22;2801;50.972;7.856;2023-07-20T00:02:04;14.10;99.90
5556;DHT22;2801;50.972;7.856;2023-07-20T00:04:32;14.00;99.90
5556;DHT22;2801;50.972;7.856;2023-07-20T00:06:59;13.90;99.90
5556;DHT22;2801;50.972;7.856;2023-07-20T00:09:30;13.80;99.90
5556;DHT22;2801;50.972;7.856;2023-07-20T00:11:56;13.70;99.90
5556;DHT22;2801;50.972;7.856;2023-07-20T00:14:24;13.70;99.90
5556;DHT22;2801;50.972;7.856;2023-07-20T00:16:52;13.70;99.90
5556;DHT22;2801;50.972;7.856;2023-07-20T00:19:23;13.60;99.90
5556;DHT22;2801;50.972;7.856;2023-07-20T00:21:52;13.50;99.90
5556;DHT22;2801;50.972;7.856;2023-07-20T00:24:20;13.50;99.90
5556;DHT22;2801;50.972;7.856;2023-07-20T00:26:50;13.40;99.90
5556;DHT22;2801;50.972;7.856;2023-07-20T00:29:17;13.40;99.90
5556;DHT22;2801;50.972;7.856;2023-07-20T00:31:44;13.40;99.90
5556;DHT22;2801;50.972;7.856;2023-07-20T00:34:13;13.40;99.90
5556;DHT22;2801;50.972;7.856;2023-07-20T00:36:40;13.40;99.90
5556;DHT22;2801;50.972;7.856;2023-07-20T00:39:08;13.40;99.90
5556;DHT22;2801;50.972;7.856;2023-07-20T00:41:35;13.50;99.90
5556;DHT22;2801;50.972;7.856;2023-07-20T00:44:02;13.50;99.90
5556;DHT22;2801;50.972;7.856;2023-07-20T00:46:29;13.50;99.90
5556;DHT22;2801;50.972;7.856;2023-07-20T00:48:56;13.40;99.90
5556;DHT22;2801;50.972;7.856;2023-07-20T00:51:25;13.40;99.90
5556;DHT22;2801;50.972;7.856;2023-07-20T00:53:53;13.30;99.90
5556;DHT22;2801;50.972;7.856;2023-07-20T00:56:21;13.30;99.90
5556;DHT22;2801;50.972;7.856;2023-07-20T00:58:49;13.20;99.90
5556;DHT22;2801;50.972;7.856;2023-07-20T01:01:17;13.10;99.90
5556;DHT22;2801;50.972;7.856;2023-07-20T01:03:44;13.00;99.90
5556;DHT22;2801;50.972;7.856;2023-07-20T01:09:12;12.80;99.90
5556;DHT22;2801;50.972;7.856;2023-07-20T01:14:34;12.70;99.90
5556;DHT22;2801;50.972;7.856;2023-07-20T01:17:02;12.60;99.90
5556;DHT22;2801;50.972;7.856;2023-07-20T01:19:29;12.70;99.90
5556;DHT22;2801;50.972;7.856;2023-07-20T01:33:21;12.70;99.90
5556;DHT22;2801;50.972;7.856;2023-07-20T01:35:58;12.80;99.90
5556;DHT22;2801;50.972;7.856;2023-07-20T01:38:27;12.80;99.90
5556;DHT22;2801;50.972;7.856;2023-07-20T01:40:55;12.90;99.90
5556;DHT22;2801;50.972;7.856;2023-07-20T01:43:22;12.90;99.90
5556;DHT22;2801;50.972;7.856;2023-07-20T01:45:49;12.90;99.90
5556;DHT22;2801;50.972;7.856;2023-07-20T01:48:16;13.00;99.90
5556;DHT22;2801;50.972;7.856;2023-07-20T01:50:43;13.20;99.90
5556;DHT22;2801;50.972;7.856;2023-07-20T01:53:10;13.00;99.90
5556;DHT22;2801;50.972;7.856;2023-07-20T01:55:38;13.00;99.90
5556;DHT22;2801;50.972;7.856;2023-07-20T01:58:05;13.10;99.90
5556;DHT22;2801;50.972;7.856;2023-07-20T02:00:32;13.10;99.90
5556;DHT22;2801;50.972;7.856;2023-07-20T02:02:59;13.20;99.90
5556;DHT22;2801;50.972;7.856;2023-07-20T02:05:26;13.30;99.90
5556;DHT22;2801;50.972;7.856;2023-07-20T02:07:53;13.20;99.90
5556;DHT22;2801;50.972;7.856;2023-07-20T02:10:20;13.30;99.90
5556;DHT22;2801;50.972;7.856;2023-07-20T02:12:47;13.30;99.90
5556;DHT22;2801;50.972;7.856;2023-07-20T02:15:15;13.30;99.90
5556;DHT22;2801;50.972;7.856;2023-07-20T02:17:45;13.40;99.90
5556;DHT22;2801;50.972;7.856;2023-07-20T02:20:13;13.50;99.90
5556;DHT22;2801;50.972;7.856;2023-07-20T02:22:40;13.50;99.90
5556;DHT22;2801;50.972;7.856;2023-07-20T02:25:08;13.50;99.90
5556;DHT22;2801;50.972;7.856;2023-07-20T02:27:35;13.60;99.90
5556;DHT22;2801;50.972;7.856;2023-07-20T02:30:05;13.70;99.90
5556;DHT22;2801;50.972;7.856;2023-07-20T02:32:34;13.80;99.90
5556;DHT22;2801;50.972;7.856;2023-07-20T02:35:01;13.80;99.90
5556;DHT22;2801;50.972;7.856;2023-07-20T02:37:29;13.90;99.90
5556;DHT22;2801;50.972;7.856;2023-07-20T02:39:56;13.90;99.90
5556;DHT22;2801;50.972;7.856;2023-07-20T02:42:24;13.90;99.90
5556;DHT22;2801;50.972;7.856;2023-07-20T02:44:52;13.90;99.90
5556;DHT22;2801;50.972;7.856;2023-07-20T02:47:19;13.90;99.90
5556;DHT22;2801;50.972;7.856;2023-07-20T02:49:46;13.90;99.90
5556;DHT22;2801;50.972;7.856;2023-07-20T02:52:13;13.90;99.90
5556;DHT22;2801;50.972;7.856;2023-07-20T02:54:40;13.80;99.90
5556;DHT22;2801;50.972;7.856;2023-07-20T02:57:07;13.70;99.90
5556;DHT22;2801;50.972;7.856;2023-07-20T02:59:34;13.70;99.90
5556;DHT22;2801;50.972;7.856;2023-07-20T03:02:01;13.60;99.90
5556;DHT22;2801;50.972;7.856;2023-07-20T03:04:28;13.60;99.90
5556;DHT22;2801;50.972;7.856;2023-07-20T03:06:55;13.50;99.90
5556;DHT22;2801;50.972;7.856;2023-07-20T03:09:22;13.40;99.90
5556;DHT22;2801;50.972;7.856;2023-07-20T03:11:50;13.30;99.90
5556;DHT22;2801;50.972;7.856;2023-07-20T03:14:17;13.20;99.90
5556;DHT22;2801;50.972;7.856;2023-07-20T03:16:44;13.10;99.90
5556;DHT22;2801;50.972;7.856;2023-07-20T03:19:11;13.10;99.90
5556;DHT22;2801;50.972;7.856;2023-07-20T03:21:38;13.10;99.90
5556;DHT22;2801;50.972;7.856;2023-07-20T03:24:08;13.20;99.90
5556;DHT22;2801;50.972;7.856;2023-07-20T03:26:36;13.30;99.90
5556;DHT22;2801;50.972;7.856;2023-07-20T03:29:04;13.40;99.90
5556;DHT22;2801;50.972;7.856;2023-07-20T03:31:32;13.50;99.90
5556;DHT22;2801;50.972;7.856;2023-07-20T04:03:17;13.80;99.90
5556;DHT22;2801;50.972;7.856;2023-07-20T04:05:45;13.80;99.90
5556;DHT22;2801;50.972;7.856;2023-07-20T04:08:12;13.80;99.90
5556;DHT22;2801;50.972;7.856;2023-07-20T04:10:43;13.70;99.90
5556;DHT22;2801;50.972;7.856;2023-07-20T04:13:11;13.80;99.90
5556;DHT22;2801;50.972;7.856;2023-07-20T04:15:38;13.80;99.90
5556;DHT22;2801;50.972;7.856;2023-07-20T04:18:05;13.90;99.90
5556;DHT22;2801;50.972;7.856;2023-07-20T04:20:33;13.90;99.90
5556;DHT22;2801;50.972;7.856;2023-07-20T04:23:00;14.00;99.90
5556;DHT22;2801;50.972;7.856;2023-07-20T04:25:27;14.00;99.90
5556;DHT22;2801;50.972;7.856;2023-07-20T04:27:54;14.10;99.90
5556;DHT22;2801;50.972;7.856;2023-07-20T04:30:22;14.20;99.90
5556;DHT22;2801;50.972;7.856;2023-07-20T04:32:49;14.20;99.90
5556;DHT22;2801;50.972;7.856;2023-07-20T04:35:25;14.20;99.90
5556;DHT22;2801;50.972;7.856;2023-07-20T04:38:19;14.20;99.90
5556;DHT22;2801;50.972;7.856;2023-07-20T04:40:49;14.30;99.90
5556;DHT22;2801;50.972;7.856;2023-07-20T04:43:17;14.40;99.90
5556;DHT22;2801;50.972;7.856;2023-07-20T04:45:45;14.40;99.90
5556;DHT22;2801;50.972;7.856;2023-07-20T04:48:14;14.40;99.90
5556;DHT22;2801;50.972;7.856;2023-07-20T04:50:44;14.40;99.90
5556;DHT22;2801;50.972;7.856;2023-07-20T04:53:12;14.50;99.90
5556;DHT22;2801;50.972;7.856;2023-07-20T04:55:40;14.50;99.90
5556;DHT22;2801;50.972;7.856;2023-07-20T04:58:13;14.60;99.90
5556;DHT22;2801;50.972;7.856;2023-07-20T05:00:40;14.60;99.90
5556;DHT22;2801;50.972;7.856;2023-07-20T05:03:07;14.70;99.90
5556;DHT22;2801;50.972;7.856;2023-07-20T05:05:35;14.70;99.90
5556;DHT22;2801;50.972;7.856;2023-07-20T05:08:02;14.70;99.90
5556;DHT22;2801;50.972;7.856;2023-07-20T05:10:30;14.80;99.90
5556;DHT22;2801;50.972;7.856;2023-07-20T05:12:59;14.90;99.90
5556;DHT22;2801;50.972;7.856;2023-07-20T05:15:26;14.90;99.90
5556;DHT22;2801;50.972;7.856;2023-07-20T05:17:53;15.00;99.90
5556;DHT22;2801;50.972;7.856;2023-07-20T05:20:20;15.00;99.90
5556;DHT22;2801;50.972;7.856;2023-07-20T05:22:48;15.10;99.90
5556;DHT22;2801;50.972;7.856;2023-07-20T05:25:15;15.10;99.90
5556;DHT22;2801;50.972;7.856;2023-07-20T05:27:45;15.10;99.90
5556;DHT22;2801;50.972;7.856;2023-07-20T05:30:13;15.10;99.90
5556;DHT22;2801;50.972;7.856;2023-07-20T05:32:40;15.10;99.90
5556;DHT22;2801;50.972;7.856;2023-07-20T05:35:07;15.20;99.90
5556;DHT22;2801;50.972;7.856;2023-07-20T05:37:35;15.20;99.90
5556;DHT22;2801;50.972;7.856;2023-07-20T05:40:02;15.30;99.90
5556;DHT22;2801;50.972;7.856;2023-07-20T05:42:29;15.40;99.90
5556;DHT22;2801;50.972;7.856;2023-07-20T05:44:56;15.60;99.90
5556;DHT22;2801;50.972;7.856;2023-07-20T05:47:23;15.70;99.90
5556;DHT22;2801;50.972;7.856;2023-07-20T05:49:51;15.80;99.90
5556;DHT22;2801;50.972;7.856;2023-07-20T05:52:17;15.80;99.90
5556;DHT22;2801;50.972;7.856;2023-07-20T05:54:44;15.90;99.90
5556;DHT22;2801;50.972;7.856;2023-07-20T05:57:14;16.10;99.90
5556;DHT22;2801;50.972;7.856;2023-07-20T05:59:41;16.10;99.90
5556;DHT22;2801;50.972;7.856;2023-07-20T06:02:11;16.10;99.90
5556;DHT22;2801;50.972;7.856;2023-07-20T06:04:39;16.10;99.90
5556;DHT22;2801;50.972;7.856;2023-07-20T06:07:06;16.10;99.90
5556;DHT22;2801;50.972;7.856;2023-07-20T06:09:36;16.10;99.90
5556;DHT22;2801;50.972;7.856;2023-07-20T06:12:03;16.10;99.90
5556;DHT22;2801;50.972;7.856;2023-07-20T06:14:30;16.20;99.90
5556;DHT22;2801;50.972;7.856;2023-07-20T06:16:57;16.20;99.90
5556;DHT22;2801;50.972;7.856;2023-07-20T06:19:24;16.10;99.90
5556;DHT22;2801;50.972;7.856;2023-07-20T06:21:51;16.20;99.90
5556;DHT22;2801;50.972;7.856;2023-07-20T06:24:19;16.00;99.90
5556;DHT22;2801;50.972;7.856;2023-07-20T06:26:45;16.00;99.90
5556;DHT22;2801;50.972;7.856;2023-07-20T06:29:12;16.10;99.90
5556;DHT22;2801;50.972;7.856;2023-07-20T06:31:39;16.20;99.90
5556;DHT22;2801;50.972;7.856;2023-07-20T06:34:06;16.50;99.90
5556;DHT22;2801;50.972;7.856;2023-07-20T06:36:33;16.70;99.90
5556;DHT22;2801;50.972;7.856;2023-07-20T06:39:00;16.90;99.90
5556;DHT22;2801;50.972;7.856;2023-07-20T06:41:31;17.10;99.90
5556;DHT22;2801;50.972;7.856;2023-07-20T06:44:02;17.20;99.90
5556;DHT22;2801;50.972;7.856;2023-07-20T06:46:29;17.10;99.90
5556;DHT22;2801;50.972;7.856;2023-07-20T06:48:56;17.00;99.90
5556;DHT22;2801;50.972;7.856;2023-07-20T06:51:26;17.00;99.90
5556;DHT22;2801;50.972;7.856;2023-07-20T06:53:53;16.90;99.90
5556;DHT22;2801;50.972;7.856;2023-07-20T06:56:20;16.90;99.90
5556;DHT22;2801;50.972;7.856;2023-07-20T06:58:51;16.80;99.90
5556;DHT22;2801;50.972;7.856;2023-07-20T07:01:18;16.80;99.90
5556;DHT22;2801;50.972;7.856;2023-07-20T07:03:48;16.80;99.90
5556;DHT22;2801;50.972;7.856;2023-07-20T07:06:19;16.80;99.90
5556;DHT22;2801;50.972;7.856;2023-07-20T07:08:48;16.80;99.90
5556;DHT22;2801;50.972;7.856;2023-07-20T07:11:15;16.80;99.90
5556;DHT22;2801;50.972;7.856;2023-07-20T07:13:42;16.80;99.90
5556;DHT22;2801;50.972;7.856;2023-07-20T07:16:09;16.90;99.90
5556;DHT22;2801;50.972;7.856;2023-07-20T07:18:36;17.10;99.90
5556;DHT22;2801;50.972;7.856;2023-07-20T07:21:03;17.30;99.90
5556;DHT22;2801;50.972;7.856;2023-07-20T07:23:30;17.40;99.90
5556;DHT22;2801;50.972;7.856;2023-07-20T07:25:57;17.50;99.90
5556;DHT22;2801;50.972;7.856;2023-07-20T07:28:24;17.50;99.90
5556;DHT22;2801;50.972;7.856;2023-07-20T07:30:51;17.50;99.90
5556;DHT22;2801;50.972;7.856;2023-07-20T07:33:18;17.70;99.90
5556;DHT22;2801;50.972;7.856;2023-07-20T07:35:45;18.00;99.90
5556;DHT22;2801;50.972;7.856;2023-07-20T07:38:12;18.30;99.90
5556;DHT22;2801;50.972;7.856;2023-07-20T07:40:59;18.40;99.90
5556;DHT22;2801;50.972;7.856;2023-07-20T07:43:26;18.40;99.90
5556;DHT22;2801;50.972;7.856;2023-07-20T07:45:54;18.30;99.90
5556;DHT22;2801;50.972;7.856;2023-07-20T07:48:22;18.20;99.90
5556;DHT22;2801;50.972;7.856;2023-07-20T07:50:49;17.90;99.90
5556;DHT22;2801;50.972;7.856;2023-07-20T07:53:16;17.80;99.90
5556;DHT22;2801;50.972;7.856;2023-07-20T07:55:44;17.70;99.90
5556;DHT22;2801;50.972;7.856;2023-07-20T07:58:11;17.70;99.90
5556;DHT22;2801;50.972;7.856;2023-07-20T08:00:38;17.90;99.90
5556;DHT22;2801;50.972;7.856;2023-07-20T08:03:06;18.20;99.90
5556;DHT22;2801;50.972;7.856;2023-07-20T08:05:33;18.30;99.90
5556;DHT22;2801;50.972;7.856;2023-07-20T08:08:03;18.30;99.90
5556;DHT22;2801;50.972;7.856;2023-07-20T08:10:32;18.30;99.90
5556;DHT22;2801;50.972;7.856;2023-07-20T08:12:59;18.30;99.90
5556;DHT22;2801;50.972;7.856;2023-07-20T08:15:26;18.20;99.90
5556;DHT22;2801;50.972;7.856;2023-07-20T08:17:53;18.30;99.90
5556;DHT22;2801;50.972;7.856;2023-07-20T08:20:20;18.40;99.90
5556;DHT22;2801;50.972;7.856;2023-07-20T08:22:54;18.70;99.90
5556;DHT22;2801;50.972;7.856;2023-07-20T08:25:21;18.90;99.90
5556;DHT22;2801;50.972;7.856;2023-07-20T08:27:48;19.10;99.90
5556;DHT22;2801;50.972;7.856;2023-07-20T08:30:15;19.30;99.90
5556;DHT22;2801;50.972;7.856;2023-07-20T08:32:42;19.60;99.90
5556;DHT22;2801;50.972;7.856;2023-07-20T08:35:10;19.80;99.90
5556;DHT22;2801;50.972;7.856;2023-07-20T08:37:37;20.10;99.90
5556;DHT22;2801;50.972;7.856;2023-07-20T08:40:04;20.10;99.90
5556;DHT22;2801;50.972;7.856;2023-07-20T08:42:36;19.90;99.90
5556;DHT22;2801;50.972;7.856;2023-07-20T08:45:08;19.70;99.90
5556;DHT22;2801;50.972;7.856;2023-07-20T10:32:24;21.70;99.90
5556;DHT22;2801;50.972;7.856;2023-07-20T10:34:56;21.50;99.90
5556;DHT22;2801;50.972;7.856;2023-07-20T10:38:01;21.40;99.90
5556;DHT22;2801;50.972;7.856;2023-07-20T10:40:33;21.10;99.90
5556;DHT22;2801;50.972;7.856;2023-07-20T10:43:09;20.90;99.90
5556;DHT22;2801;50.972;7.856;2023-07-20T10:45:40;20.80;99.90
5556;DHT22;2801;50.972;7.856;2023-07-20T10:48:19;20.60;99.90
5556;DHT22;2801;50.972;7.856;2023-07-20T10:51:41;20.60;99.90
5556;DHT22;2801;50.972;7.856;2023-07-20T10:54:09;20.90;98.80
5556;DHT22;2801;50.972;7.856;2023-07-20T10:56:57;20.90;98.60
5556;DHT22;2801;50.972;7.856;2023-07-20T10:59:47;20.90;98.90
5556;DHT22;2801;50.972;7.856;2023-07-20T11:02:18;20.80;98.70
5556;DHT22;2801;50.972;7.856;2023-07-20T11:04:47;20.60;98.90
5556;DHT22;2801;50.972;7.856;2023-07-20T11:07:17;20.50;98.60
5556;DHT22;2801;50.972;7.856;2023-07-20T11:10:14;20.40;98.60
5556;DHT22;2801;50.972;7.856;2023-07-20T11:13:20;20.30;98.70
5556;DHT22;2801;50.972;7.856;2023-07-20T11:18:26;20.60;99.00
5556;DHT22;2801;50.972;7.856;2023-07-20T11:20:53;21.00;98.50
5556;DHT22;2801;50.972;7.856;2023-07-20T11:23:20;21.30;97.90
5556;DHT22;2801;50.972;7.856;2023-07-20T11:25:48;21.50;97.40
5556;DHT22;2801;50.972;7.856;2023-07-20T11:28:16;21.50;96.00
5556;DHT22;2801;50.972;7.856;2023-07-20T11:30:43;21.30;95.90
5556;DHT22;2801;50.972;7.856;2023-07-20T11:33:10;21.20;95.80
5556;DHT22;2801;50.972;7.856;2023-07-20T11:35:48;21.10;95.70
5556;DHT22;2801;50.972;7.856;2023-07-20T11:38:18;21.30;95.80
5556;DHT22;2801;50.972;7.856;2023-07-20T11:40:46;21.60;95.40
5556;DHT22;2801;50.972;7.856;2023-07-20T11:43:13;21.70;95.10
5556;DHT22;2801;50.972;7.856;2023-07-20T11:45:45;21.70;93.70
5556;DHT22;2801;50.972;7.856;2023-07-20T11:48:16;21.70;94.30
5556;DHT22;2801;50.972;7.856;2023-07-20T11:50:43;21.70;94.20
5556;DHT22;2801;50.972;7.856;2023-07-20T11:53:11;21.70;94.20
5556;DHT22;2801;50.972;7.856;2023-07-20T11:55:40;21.60;94.30
5556;DHT22;2801;50.972;7.856;2023-07-20T11:58:09;21.50;93.90
5556;DHT22;2801;50.972;7.856;2023-07-20T12:00:39;21.40;94.10
5556;DHT22;2801;50.972;7.856;2023-07-20T12:03:10;21.20;94.10
5556;DHT22;2801;50.972;7.856;2023-07-20T12:05:39;21.00;93.40
5556;DHT22;2801;50.972;7.856;2023-07-20T12:08:26;20.90;93.10
5556;DHT22;2801;50.972;7.856;2023-07-20T12:10:53;20.70;92.70
5556;DHT22;2801;50.972;7.856;2023-07-20T12:13:20;20.60;92.60
5556;DHT22;2801;50.972;7.856;2023-07-20T12:15:47;20.50;93.00
5556;DHT22;2801;50.972;7.856;2023-07-20T12:18:14;20.60;93.20
5556;DHT22;2801;50.972;7.856;2023-07-20T12:20:41;20.50;93.30
5556;DHT22;2801;50.972;7.856;2023-07-20T12:23:12;20.40;93.30
5556;DHT22;2801;50.972;7.856;2023-07-20T12:25:41;20.40;93.30
5556;DHT22;2801;50.972;7.856;2023-07-20T12:28:12;20.30;93.40
5556;DHT22;2801;50.972;7.856;2023-07-20T12:30:42;20.30;93.50
5556;DHT22;2801;50.972;7.856;2023-07-20T12:33:11;20.20;93.10
5556;DHT22;2801;50.972;7.856;2023-07-20T12:35:43;20.30;92.90
5556;DHT22;2801;50.972;7.856;2023-07-20T12:38:10;20.20;92.90
5556;DHT22;2801;50.972;7.856;2023-07-20T12:40:37;20.30;93.00
5556;DHT22;2801;50.972;7.856;2023-07-20T12:43:04;20.50;93.20
5556;DHT22;2801;50.972;7.856;2023-07-20T12:45:31;20.60;93.30
5556;DHT22;2801;50.972;7.856;2023-07-20T12:47:59;20.70;93.10
5556;DHT22;2801;50.972;7.856;2023-07-20T12:50:27;20.80;93.00
5556;DHT22;2801;50.972;7.856;2023-07-20T12:52:54;20.80;92.90
5556;DHT22;2801;50.972;7.856;2023-07-20T12:55:21;20.90;93.00
5556;DHT22;2801;50.972;7.856;2023-07-20T12:57:48;20.90;93.00
5556;DHT22;2801;50.972;7.856;2023-07-20T13:00:15;21.00;92.80
5556;DHT22;2801;50.972;7.856;2023-07-20T13:02:45;21.10;92.40
5556;DHT22;2801;50.972;7.856;2023-07-20T13:05:13;21.10;92.40
5556;DHT22;2801;50.972;7.856;2023-07-20T13:07:41;21.20;92.00
5556;DHT22;2801;50.972;7.856;2023-07-20T13:10:12;21.30;92.10
5556;DHT22;2801;50.972;7.856;2023-07-20T13:12:39;21.30;92.30
5556;DHT22;2801;50.972;7.856;2023-07-20T13:15:07;21.40;92.10
5556;DHT22;2801;50.972;7.856;2023-07-20T13:17:37;21.50;92.00
5556;DHT22;2801;50.972;7.856;2023-07-20T13:20:09;21.60;91.70
5556;DHT22;2801;50.972;7.856;2023-07-20T13:22:38;21.70;91.30
5556;DHT22;2801;50.972;7.856;2023-07-20T13:25:05;21.80;90.60
5556;DHT22;2801;50.972;7.856;2023-07-20T13:27:34;21.80;90.30
5556;DHT22;2801;50.972;7.856;2023-07-20T13:30:02;21.80;90.00
5556;DHT22;2801;50.972;7.856;2023-07-20T13:32:35;21.90;89.40
5556;DHT22;2801;50.972;7.856;2023-07-20T13:35:03;21.90;88.50
5556;DHT22;2801;50.972;7.856;2023-07-20T13:37:30;21.90;88.40
5556;DHT22;2801;50.972;7.856;2023-07-20T13:39:57;22.00;89.00
5556;DHT22;2801;50.972;7.856;2023-07-20T13:42:24;22.10;88.20
5556;DHT22;2801;50.972;7.856;2023-07-20T13:44:51;22.10;87.80
5556;DHT22;2801;50.972;7.856;2023-07-20T13:47:18;22.10;87.70
5556;DHT22;2801;50.972;7.856;2023-07-20T13:49:48;22.20;87.30
5556;DHT22;2801;50.972;7.856;2023-07-20T13:52:28;22.10;85.90
5556;DHT22;2801;50.972;7.856;2023-07-20T13:54:58;22.10;87.10
5556;DHT22;2801;50.972;7.856;2023-07-20T13:57:26;22.30;88.20
5556;DHT22;2801;50.972;7.856;2023-07-20T13:59:53;22.70;88.70
5556;DHT22;2801;50.972;7.856;2023-07-20T14:02:20;23.10;88.20
5556;DHT22;2801;50.972;7.856;2023-07-20T14:04:50;23.30;87.60
5556;DHT22;2801;50.972;7.856;2023-07-20T14:07:37;23.40;85.10
5556;DHT22;2801;50.972;7.856;2023-07-20T14:10:04;23.20;83.20
5556;DHT22;2801;50.972;7.856;2023-07-20T14:12:34;22.90;81.50
5556;DHT22;2801;50.972;7.856;2023-07-20T14:15:01;22.70;82.20
5556;DHT22;2801;50.972;7.856;2023-07-20T14:17:30;22.50;82.10
5556;DHT22;2801;50.972;7.856;2023-07-20T14:19:58;22.30;82.10
5556;DHT22;2801;50.972;7.856;2023-07-20T14:22:25;22.00;81.80
5556;DHT22;2801;50.972;7.856;2023-07-20T14:24:53;21.80;81.40
5556;DHT22;2801;50.972;7.856;2023-07-20T14:27:20;21.60;82.70
5556;DHT22;2801;50.972;7.856;2023-07-20T14:29:47;21.50;82.90
5556;DHT22;2801;50.972;7.856;2023-07-20T14:32:14;21.50;82.70
5556;DHT22;2801;50.972;7.856;2023-07-20T14:34:41;21.40;82.50
5556;DHT22;2801;50.972;7.856;2023-07-20T14:37:08;21.40;83.10
5556;DHT22;2801;50.972;7.856;2023-07-20T14:39:35;21.40;83.50
5556;DHT22;2801;50.972;7.856;2023-07-20T14:42:02;21.50;84.40
5556;DHT22;2801;50.972;7.856;2023-07-20T14:44:30;21.60;84.50
5556;DHT22;2801;50.972;7.856;2023-07-20T14:46:57;21.90;83.90
5556;DHT22;2801;50.972;7.856;2023-07-20T14:49:39;22.20;85.00
5556;DHT22;2801;50.972;7.856;2023-07-20T14:52:06;22.70;84.80
5556;DHT22;2801;50.972;7.856;2023-07-20T14:54:36;23.10;85.70
5556;DHT22;2801;50.972;7.856;2023-07-20T14:57:03;23.40;83.60
5556;DHT22;2801;50.972;7.856;2023-07-20T14:59:31;23.50;81.10
5556;DHT22;2801;50.972;7.856;2023-07-20T15:01:58;23.60;79.70
5556;DHT22;2801;50.972;7.856;2023-07-20T15:04:25;23.50;78.80
5556;DHT22;2801;50.972;7.856;2023-07-20T15:06:53;23.60;78.80
5556;DHT22;2801;50.972;7.856;2023-07-20T15:09:21;23.80;77.00
5556;DHT22;2801;50.972;7.856;2023-07-20T15:11:48;24.00;76.60
5556;DHT22;2801;50.972;7.856;2023-07-20T15:14:15;24.10;76.30
5556;DHT22;2801;50.972;7.856;2023-07-20T15:16:42;24.40;76.20
5556;DHT22;2801;50.972;7.856;2023-07-20T15:19:11;24.50;72.30
5556;DHT22;2801;50.972;7.856;2023-07-20T15:21:40;24.20;71.80
5556;DHT22;2801;50.972;7.856;2023-07-20T15:24:07;24.00;72.60
5556;DHT22;2801;50.972;7.856;2023-07-20T15:26:34;24.00;72.80
5556;DHT22;2801;50.972;7.856;2023-07-20T15:29:01;24.20;71.60
5556;DHT22;2801;50.972;7.856;2023-07-20T15:31:28;24.20;67.80
5556;DHT22;2801;50.972;7.856;2023-07-20T15:33:58;24.10;67.80
5556;DHT22;2801;50.972;7.856;2023-07-20T15:36:25;24.20;67.70
5556;DHT22;2801;50.972;7.856;2023-07-20T15:38:52;24.30;67.70
5556;DHT22;2801;50.972;7.856;2023-07-20T15:41:20;24.30;67.30
5556;DHT22;2801;50.972;7.856;2023-07-20T15:43:48;24.30;65.40
5556;DHT22;2801;50.972;7.856;2023-07-20T15:48:47;24.10;65.00
5556;DHT22;2801;50.972;7.856;2023-07-20T15:51:14;24.20;66.10
5556;DHT22;2801;50.972;7.856;2023-07-20T15:53:41;24.20;65.00
5556;DHT22;2801;50.972;7.856;2023-07-20T15:56:08;24.00;64.20
5556;DHT22;2801;50.972;7.856;2023-07-20T15:58:35;23.80;64.50
5556;DHT22;2801;50.972;7.856;2023-07-20T16:01:02;23.70;65.30
5556;DHT22;2801;50.972;7.856;2023-07-20T16:03:30;23.80;66.00
5556;DHT22;2801;50.972;7.856;2023-07-20T16:05:59;23.90;67.00
5556;DHT22;2801;50.972;7.856;2023-07-20T16:08:30;23.90;67.50
5556;DHT22;2801;50.972;7.856;2023-07-20T16:10:57;23.90;68.40
5556;DHT22;2801;50.972;7.856;2023-07-20T16:13:30;24.10;69.10
5556;DHT22;2801;50.972;7.856;2023-07-20T16:15:57;24.30;68.10
5556;DHT22;2801;50.972;7.856;2023-07-20T16:18:23;24.40;67.30
5556;DHT22;2801;50.972;7.856;2023-07-20T16:20:51;24.40;67.40
5556;DHT22;2801;50.972;7.856;2023-07-20T16:23:19;24.50;66.70
5556;DHT22;2801;50.972;7.856;2023-07-20T16:25:46;24.40;67.30
5556;DHT22;2801;50.972;7.856;2023-07-20T16:28:14;24.40;67.10
5556;DHT22;2801;50.972;7.856;2023-07-20T16:30:40;24.30;66.10
5556;DHT22;2801;50.972;7.856;2023-07-20T16:33:07;24.20;66.50
5556;DHT22;2801;50.972;7.856;2023-07-20T16:35:38;24.10;66.80
5556;DHT22;2801;50.972;7.856;2023-07-20T16:38:10;23.80;66.50
5556;DHT22;2801;50.972;7.856;2023-07-20T16:40:39;23.60;66.40
5556;DHT22;2801;50.972;7.856;2023-07-20T16:43:10;23.60;66.80
5556;DHT22;2801;50.972;7.856;2023-07-20T16:45:37;23.60;66.40
5556;DHT22;2801;50.972;7.856;2023-07-20T16:48:04;23.40;65.90
5556;DHT22;2801;50.972;7.856;2023-07-20T16:50:31;23.20;66.10
5556;DHT22;2801;50.972;7.856;2023-07-20T16:52:58;23.10;66.80
5556;DHT22;2801;50.972;7.856;2023-07-20T16:55:26;23.00;67.50
5556;DHT22;2801;50.972;7.856;2023-07-20T16:57:53;23.00;68.40
5556;DHT22;2801;50.972;7.856;2023-07-20T17:00:20;22.90;68.90
5556;DHT22;2801;50.972;7.856;2023-07-20T17:02:48;22.80;69.50
5556;DHT22;2801;50.972;7.856;2023-07-20T17:05:16;22.80;69.70
5556;DHT22;2801;50.972;7.856;2023-07-20T17:07:43;22.80;69.00
5556;DHT22;2801;50.972;7.856;2023-07-20T17:10:10;22.80;69.20
5556;DHT22;2801;50.972;7.856;2023-07-20T17:12:38;22.70;68.80
5556;DHT22;2801;50.972;7.856;2023-07-20T17:15:06;22.60;69.20
5556;DHT22;2801;50.972;7.856;2023-07-20T17:17:34;22.50;69.40
5556;DHT22;2801;50.972;7.856;2023-07-20T17:20:02;22.50;69.40
5556;DHT22;2801;50.972;7.856;2023-07-20T17:22:35;22.40;70.20
5556;DHT22;2801;50.972;7.856;2023-07-20T17:25:02;22.40;71.60
5556;DHT22;2801;50.972;7.856;2023-07-20T17:27:32;22.40;71.00
5556;DHT22;2801;50.972;7.856;2023-07-20T17:30:19;22.30;70.40
5556;DHT22;2801;50.972;7.856;2023-07-20T17:32:48;22.20;70.70
5556;DHT22;2801;50.972;7.856;2023-07-20T17:35:19;22.20;71.10
5556;DHT22;2801;50.972;7.856;2023-07-20T17:37:47;22.10;71.40
5556;DHT22;2801;50.972;7.856;2023-07-20T17:40:17;22.10;71.60
5556;DHT22;2801;50.972;7.856;2023-07-20T17:42:49;22.00;72.10
5556;DHT22;2801;50.972;7.856;2023-07-20T17:45:20;21.90;72.50
5556;DHT22;2801;50.972;7.856;2023-07-20T17:47:48;21.80;73.00
5556;DHT22;2801;50.972;7.856;2023-07-20T17:50:15;21.80;73.00
5556;DHT22;2801;50.972;7.856;2023-07-20T17:52:43;21.80;73.40
5556;DHT22;2801;50.972;7.856;2023-07-20T17:55:10;21.80;73.60
5556;DHT22;2801;50.972;7.856;2023-07-20T17:57:37;21.80;73.60
5556;DHT22;2801;50.972;7.856;2023-07-20T18:00:04;21.90;73.40
5556;DHT22;2801;50.972;7.856;2023-07-20T18:02:39;21.80;73.50
5556;DHT22;2801;50.972;7.856;2023-07-20T18:05:06;21.80;74.10
5556;DHT22;2801;50.972;7.856;2023-07-20T18:07:33;21.60;74.90
5556;DHT22;2801;50.972;7.856;2023-07-20T18:10:01;21.50;75.10
5556;DHT22;2801;50.972;7.856;2023-07-20T18:12:30;21.40;75.10
5556;DHT22;2801;50.972;7.856;2023-07-20T18:14:58;21.20;75.90
5556;DHT22;2801;50.972;7.856;2023-07-20T18:17:25;21.00;76.70
5556;DHT22;2801;50.972;7.856;2023-07-20T18:19:53;20.80;77.60
5556;DHT22;2801;50.972;7.856;2023-07-20T18:22:20;20.60;78.60
5556;DHT22;2801;50.972;7.856;2023-07-20T18:24:49;20.40;79.30
5556;DHT22;2801;50.972;7.856;2023-07-20T18:27:17;20.20;80.00
5556;DHT22;2801;50.972;7.856;2023-07-20T18:29:44;20.00;80.60
5556;DHT22;2801;50.972;7.856;2023-07-20T18:32:11;19.90;81.30
5556;DHT22;2801;50.972;7.856;2023-07-20T18:34:38;19.70;81.40
5556;DHT22;2801;50.972;7.856;2023-07-20T18:37:05;19.60;81.70
5556;DHT22;2801;50.972;7.856;2023-07-20T18:39:32;19.40;82.20
5556;DHT22;2801;50.972;7.856;2023-07-20T18:41:59;19.30;82.80
5556;DHT22;2801;50.972;7.856;2023-07-20T18:44:26;19.10;83.20
5556;DHT22;2801;50.972;7.856;2023-07-20T18:46:56;18.90;83.50
5556;DHT22;2801;50.972;7.856;2023-07-20T18:49:24;18.90;84.30